KMGM/MGM METAR and TAF weather

Enter ICAO airport designator
Station Type Date Time Source
KMGM METAR 2020/08/11 18:53 UTC NOAA

KMGM 111853Z 31015G51KT 3/4SM +TSRA SQ FEW018 BKN043 BKN060 27/19 A2998 RMK AO2 PK WND 30051/1850 LTG DSNT ALQDS RAB48 TSB39 SLP148 P0001 T02670194


Station Type Date Time Source
KMGM Decoded METAR 2020/08/11 18:53 UTC NOAA

MONTGOMERY DANNELLY FIELD, AL, United States (KMGM) 32-18N 86-24W 63M
Aug 11, 2020 - 02:53 PM EDT / 2020.08.11 1853 UTC
Wind: from the NW (310 degrees) at 17 MPH (15 KT) gusting to 59 MPH (51 KT):1
Visibility: 3/4 mile(s):0
Sky conditions: mostly cloudy
Weather: heavy rain with thunder; squalls; Lightning observed
Precipitation last hour: 0.01 inches
Temperature: 80.1 F (26.7 C)
Dew Point: 66.9 F (19.4 C)
Relative Humidity: 64%
Pressure (altimeter): 29.98 in. Hg (1015 hPa)
ob: KMGM 111853Z 31015G51KT 3/4SM +TSRA SQ FEW018 BKN043 BKN060 27/19 A2998 RMK AO2 PK WND 30051/1850 LTG DSNT ALQDS RAB48 TSB39 SLP148 P0001 T02670194
cycle: 19

Station Type Date Time Source
KMGM TAF 2020/08/11 18:36 UTC NOAA

TAF KMGM 111735Z 1118/1218 28005KT P6SM VCTS SCT040CB
FM120200 00000KT P6SM BKN070
FM121400 24003KT P6SM SCT200

Example: see airport list